sensor_id;sensor_type;location;lat;lon;timestamp;temperature;humidity
44767;DHT22;30487;48.716;9.272;2023-02-15T00:01:39;4.10;99.90
44767;DHT22;30487;48.716;9.272;2023-02-15T00:04:06;4.00;99.90
44767;DHT22;30487;48.716;9.272;2023-02-15T00:06:32;3.90;99.90
44767;DHT22;30487;48.716;9.272;2023-02-15T00:08:58;3.80;99.90
44767;DHT22;30487;48.716;9.272;2023-02-15T00:11:23;3.90;99.90
44767;DHT22;30487;48.716;9.272;2023-02-15T00:14:34;3.90;99.90
44767;DHT22;30487;48.716;9.272;2023-02-15T00:16:59;3.90;99.90
44767;DHT22;30487;48.716;9.272;2023-02-15T00:19:25;3.90;99.90
44767;DHT22;30487;48.716;9.272;2023-02-15T00:21:51;3.90;99.90
44767;DHT22;30487;48.716;9.272;2023-02-15T00:24:18;3.90;99.90
44767;DHT22;30487;48.716;9.272;2023-02-15T00:26:45;4.00;99.90
44767;DHT22;30487;48.716;9.272;2023-02-15T00:29:12;4.00;99.90
44767;DHT22;30487;48.716;9.272;2023-02-15T00:31:38;4.00;99.90
44767;DHT22;30487;48.716;9.272;2023-02-15T00:34:14;4.00;99.90
44767;DHT22;30487;48.716;9.272;2023-02-15T00:36:41;4.00;99.90
44767;DHT22;30487;48.716;9.272;2023-02-15T00:39:06;4.00;99.90
44767;DHT22;30487;48.716;9.272;2023-02-15T00:41:33;3.90;99.90
44767;DHT22;30487;48.716;9.272;2023-02-15T00:43:59;4.00;99.90
44767;DHT22;30487;48.716;9.272;2023-02-15T00:46:24;4.00;99.90
44767;DHT22;30487;48.716;9.272;2023-02-15T00:48:50;3.90;99.90
44767;DHT22;30487;48.716;9.272;2023-02-15T00:51:16;3.90;99.90
44767;DHT22;30487;48.716;9.272;2023-02-15T00:53:42;3.90;99.90
44767;DHT22;30487;48.716;9.272;2023-02-15T00:56:09;3.80;99.90
44767;DHT22;30487;48.716;9.272;2023-02-15T00:58:35;3.80;99.90
44767;DHT22;30487;48.716;9.272;2023-02-15T01:01:06;3.80;99.90
44767;DHT22;30487;48.716;9.272;2023-02-15T01:03:32;3.80;99.90
44767;DHT22;30487;48.716;9.272;2023-02-15T01:05:58;3.80;99.90
44767;DHT22;30487;48.716;9.272;2023-02-15T01:08:24;3.70;99.90
44767;DHT22;30487;48.716;9.272;2023-02-15T01:10:50;3.70;99.90
44767;DHT22;30487;48.716;9.272;2023-02-15T01:13:16;3.70;99.90
44767;DHT22;30487;48.716;9.272;2023-02-15T01:15:42;3.60;99.90
44767;DHT22;30487;48.716;9.272;2023-02-15T01:18:09;3.60;99.90
44767;DHT22;30487;48.716;9.272;2023-02-15T01:20:36;3.70;99.90
44767;DHT22;30487;48.716;9.272;2023-02-15T01:23:05;3.70;99.90
44767;DHT22;30487;48.716;9.272;2023-02-15T01:25:32;3.70;99.90
44767;DHT22;30487;48.716;9.272;2023-02-15T01:27:58;3.70;99.90
44767;DHT22;30487;48.716;9.272;2023-02-15T01:30:23;3.60;99.90
44767;DHT22;30487;48.716;9.272;2023-02-15T01:32:49;3.60;99.90
44767;DHT22;30487;48.716;9.272;2023-02-15T01:35:14;3.50;99.90
44767;DHT22;30487;48.716;9.272;2023-02-15T01:37:40;3.50;99.90
44767;DHT22;30487;48.716;9.272;2023-02-15T01:40:08;3.50;99.90
44767;DHT22;30487;48.716;9.272;2023-02-15T01:42:34;3.50;99.90
44767;DHT22;30487;48.716;9.272;2023-02-15T01:45:05;3.50;99.90
44767;DHT22;30487;48.716;9.272;2023-02-15T01:47:45;3.50;99.90
44767;DHT22;30487;48.716;9.272;2023-02-15T01:50:27;3.40;99.90
44767;DHT22;30487;48.716;9.272;2023-02-15T01:53:15;3.40;99.90
44767;DHT22;30487;48.716;9.272;2023-02-15T01:55:50;3.40;99.90
44767;DHT22;30487;48.716;9.272;2023-02-15T01:58:16;3.30;99.90
44767;DHT22;30487;48.716;9.272;2023-02-15T02:00:42;3.20;99.90
44767;DHT22;30487;48.716;9.272;2023-02-15T02:03:08;3.20;99.90
44767;DHT22;30487;48.716;9.272;2023-02-15T02:05:34;3.20;99.90
44767;DHT22;30487;48.716;9.272;2023-02-15T02:08:01;3.20;99.90
44767;DHT22;30487;48.716;9.272;2023-02-15T02:10:28;3.20;99.90
44767;DHT22;30487;48.716;9.272;2023-02-15T02:13:05;3.20;99.90
44767;DHT22;30487;48.716;9.272;2023-02-15T02:16:13;3.20;99.90
44767;DHT22;30487;48.716;9.272;2023-02-15T02:18:52;3.10;99.90
44767;DHT22;30487;48.716;9.272;2023-02-15T02:21:41;3.10;99.90
44767;DHT22;30487;48.716;9.272;2023-02-15T02:30:12;2.90;99.90
44767;DHT22;30487;48.716;9.272;2023-02-15T02:35:27;2.80;99.90
44767;DHT22;30487;48.716;9.272;2023-02-15T02:46:32;2.50;99.90
44767;DHT22;30487;48.716;9.272;2023-02-15T02:49:01;2.50;99.90
44767;DHT22;30487;48.716;9.272;2023-02-15T02:51:27;2.50;99.90
44767;DHT22;30487;48.716;9.272;2023-02-15T02:53:55;2.50;99.90
44767;DHT22;30487;48.716;9.272;2023-02-15T02:56:43;2.50;99.90
44767;DHT22;30487;48.716;9.272;2023-02-15T02:59:28;2.60;99.90
44767;DHT22;30487;48.716;9.272;2023-02-15T03:02:00;2.60;99.90
44767;DHT22;30487;48.716;9.272;2023-02-15T03:04:35;2.60;99.90
44767;DHT22;30487;48.716;9.272;2023-02-15T03:07:06;2.60;99.90
44767;DHT22;30487;48.716;9.272;2023-02-15T03:09:45;2.50;99.90
44767;DHT22;30487;48.716;9.272;2023-02-15T03:12:16;2.50;99.90
44767;DHT22;30487;48.716;9.272;2023-02-15T03:14:44;2.40;99.90
44767;DHT22;30487;48.716;9.272;2023-02-15T03:17:12;2.40;99.90
44767;DHT22;30487;48.716;9.272;2023-02-15T03:19:40;2.40;99.90
44767;DHT22;30487;48.716;9.272;2023-02-15T03:22:32;2.40;99.90
44767;DHT22;30487;48.716;9.272;2023-02-15T03:25:09;2.30;99.90
44767;DHT22;30487;48.716;9.272;2023-02-15T03:27:40;2.40;99.90
44767;DHT22;30487;48.716;9.272;2023-02-15T03:30:08;2.40;99.90
44767;DHT22;30487;48.716;9.272;2023-02-15T03:32:35;2.40;99.90
44767;DHT22;30487;48.716;9.272;2023-02-15T03:35:02;2.40;99.90
44767;DHT22;30487;48.716;9.272;2023-02-15T03:37:43;2.40;99.90
44767;DHT22;30487;48.716;9.272;2023-02-15T03:40:17;2.40;99.90
44767;DHT22;30487;48.716;9.272;2023-02-15T03:44:19;2.40;99.90
44767;DHT22;30487;48.716;9.272;2023-02-15T03:46:33;2.30;99.90
44767;DHT22;30487;48.716;9.272;2023-02-15T03:49:17;2.40;99.90
44767;DHT22;30487;48.716;9.272;2023-02-15T03:51:47;2.40;99.90
44767;DHT22;30487;48.716;9.272;2023-02-15T03:54:30;2.30;99.90
44767;DHT22;30487;48.716;9.272;2023-02-15T03:57:31;2.30;99.90
44767;DHT22;30487;48.716;9.272;2023-02-15T04:00:21;2.30;99.90
44767;DHT22;30487;48.716;9.272;2023-02-15T04:05:41;2.20;99.90
44767;DHT22;30487;48.716;9.272;2023-02-15T04:08:07;2.20;99.90
44767;DHT22;30487;48.716;9.272;2023-02-15T04:10:32;2.20;99.90
44767;DHT22;30487;48.716;9.272;2023-02-15T04:13:16;2.10;99.90
44767;DHT22;30487;48.716;9.272;2023-02-15T04:15:42;2.10;99.90
44767;DHT22;30487;48.716;9.272;2023-02-15T04:18:26;2.10;99.90
44767;DHT22;30487;48.716;9.272;2023-02-15T04:21:10;2.10;99.90
44767;DHT22;30487;48.716;9.272;2023-02-15T04:23:54;2.00;99.90
44767;DHT22;30487;48.716;9.272;2023-02-15T04:26:38;2.00;99.90
44767;DHT22;30487;48.716;9.272;2023-02-15T04:29:04;2.00;99.90
44767;DHT22;30487;48.716;9.272;2023-02-15T04:31:29;2.00;99.90
44767;DHT22;30487;48.716;9.272;2023-02-15T04:33:55;1.90;99.90
44767;DHT22;30487;48.716;9.272;2023-02-15T04:36:20;2.00;99.90
44767;DHT22;30487;48.716;9.272;2023-02-15T04:38:46;2.00;99.90
44767;DHT22;30487;48.716;9.272;2023-02-15T04:41:11;2.00;99.90
44767;DHT22;30487;48.716;9.272;2023-02-15T04:43:38;2.00;99.90
44767;DHT22;30487;48.716;9.272;2023-02-15T04:46:04;1.90;99.90
44767;DHT22;30487;48.716;9.272;2023-02-15T04:48:30;1.90;99.90
44767;DHT22;30487;48.716;9.272;2023-02-15T04:50:55;1.90;99.90
44767;DHT22;30487;48.716;9.272;2023-02-15T04:53:21;1.80;99.90
44767;DHT22;30487;48.716;9.272;2023-02-15T04:55:47;1.80;99.90
44767;DHT22;30487;48.716;9.272;2023-02-15T04:58:12;1.60;99.90
44767;DHT22;30487;48.716;9.272;2023-02-15T05:00:38;1.60;99.90
44767;DHT22;30487;48.716;9.272;2023-02-15T05:03:04;1.40;99.90
44767;DHT22;30487;48.716;9.272;2023-02-15T05:05:29;1.50;99.90
44767;DHT22;30487;48.716;9.272;2023-02-15T05:07:55;1.60;99.90
44767;DHT22;30487;48.716;9.272;2023-02-15T05:10:21;1.70;99.90
44767;DHT22;30487;48.716;9.272;2023-02-15T05:12:46;1.80;99.90
44767;DHT22;30487;48.716;9.272;2023-02-15T05:15:12;1.80;99.90
44767;DHT22;30487;48.716;9.272;2023-02-15T05:17:38;1.90;99.90
44767;DHT22;30487;48.716;9.272;2023-02-15T05:20:04;1.80;99.90
44767;DHT22;30487;48.716;9.272;2023-02-15T05:22:30;1.90;99.90
44767;DHT22;30487;48.716;9.272;2023-02-15T05:24:55;1.90;99.90
44767;DHT22;30487;48.716;9.272;2023-02-15T05:27:39;1.80;99.90
44767;DHT22;30487;48.716;9.272;2023-02-15T05:30:23;1.80;99.90
44767;DHT22;30487;48.716;9.272;2023-02-15T05:32:49;1.70;99.90
44767;DHT22;30487;48.716;9.272;2023-02-15T05:35:15;1.60;99.90
44767;DHT22;30487;48.716;9.272;2023-02-15T05:37:41;1.50;99.90
44767;DHT22;30487;48.716;9.272;2023-02-15T05:40:07;1.40;99.90
44767;DHT22;30487;48.716;9.272;2023-02-15T05:42:33;1.40;99.90
44767;DHT22;30487;48.716;9.272;2023-02-15T05:44:59;1.30;99.90
44767;DHT22;30487;48.716;9.272;2023-02-15T05:47:24;1.30;99.90
44767;DHT22;30487;48.716;9.272;2023-02-15T05:49:50;1.20;99.90
44767;DHT22;30487;48.716;9.272;2023-02-15T05:52:15;1.20;99.90
44767;DHT22;30487;48.716;9.272;2023-02-15T05:54:41;1.20;99.90
44767;DHT22;30487;48.716;9.272;2023-02-15T05:57:06;1.20;99.90
44767;DHT22;30487;48.716;9.272;2023-02-15T05:59:32;1.20;99.90
44767;DHT22;30487;48.716;9.272;2023-02-15T06:01:58;1.20;99.90
44767;DHT22;30487;48.716;9.272;2023-02-15T06:04:23;1.30;99.90
44767;DHT22;30487;48.716;9.272;2023-02-15T06:06:49;1.30;99.90
44767;DHT22;30487;48.716;9.272;2023-02-15T06:09:14;1.40;99.90
44767;DHT22;30487;48.716;9.272;2023-02-15T06:11:43;1.50;99.90
44767;DHT22;30487;48.716;9.272;2023-02-15T06:14:09;1.50;99.90
44767;DHT22;30487;48.716;9.272;2023-02-15T06:16:35;1.50;99.90
44767;DHT22;30487;48.716;9.272;2023-02-15T06:19:00;1.60;99.90
44767;DHT22;30487;48.716;9.272;2023-02-15T06:21:27;1.60;99.90
44767;DHT22;30487;48.716;9.272;2023-02-15T06:23:53;1.50;99.90
44767;DHT22;30487;48.716;9.272;2023-02-15T06:26:18;1.50;99.90
44767;DHT22;30487;48.716;9.272;2023-02-15T06:28:44;1.30;99.90
44767;DHT22;30487;48.716;9.272;2023-02-15T06:31:09;1.20;99.90
44767;DHT22;30487;48.716;9.272;2023-02-15T06:33:35;1.10;99.90
44767;DHT22;30487;48.716;9.272;2023-02-15T06:36:01;1.10;99.90
44767;DHT22;30487;48.716;9.272;2023-02-15T06:38:27;1.20;99.90
44767;DHT22;30487;48.716;9.272;2023-02-15T06:40:52;1.20;99.90
44767;DHT22;30487;48.716;9.272;2023-02-15T06:43:18;1.30;99.90
44767;DHT22;30487;48.716;9.272;2023-02-15T06:45:43;1.30;99.90
44767;DHT22;30487;48.716;9.272;2023-02-15T06:48:09;1.40;99.90
44767;DHT22;30487;48.716;9.272;2023-02-15T06:50:37;1.40;99.90
44767;DHT22;30487;48.716;9.272;2023-02-15T06:53:03;1.30;99.90
44767;DHT22;30487;48.716;9.272;2023-02-15T06:55:28;1.30;99.90
44767;DHT22;30487;48.716;9.272;2023-02-15T06:57:54;1.30;99.90
44767;DHT22;30487;48.716;9.272;2023-02-15T07:00:19;1.30;99.90
44767;DHT22;30487;48.716;9.272;2023-02-15T07:02:47;1.40;99.90
44767;DHT22;30487;48.716;9.272;2023-02-15T07:05:12;1.40;99.90
44767;DHT22;30487;48.716;9.272;2023-02-15T07:07:38;1.50;99.90
44767;DHT22;30487;48.716;9.272;2023-02-15T07:10:04;1.50;99.90
44767;DHT22;30487;48.716;9.272;2023-02-15T07:12:30;1.50;99.90
44767;DHT22;30487;48.716;9.272;2023-02-15T07:15:14;1.60;99.90
44767;DHT22;30487;48.716;9.272;2023-02-15T07:17:40;1.70;99.90
44767;DHT22;30487;48.716;9.272;2023-02-15T07:20:18;1.70;99.90
44767;DHT22;30487;48.716;9.272;2023-02-15T07:22:45;1.80;99.90
44767;DHT22;30487;48.716;9.272;2023-02-15T07:25:12;1.80;99.90
44767;DHT22;30487;48.716;9.272;2023-02-15T07:27:38;1.80;99.90
44767;DHT22;30487;48.716;9.272;2023-02-15T07:30:06;1.90;99.90
44767;DHT22;30487;48.716;9.272;2023-02-15T07:32:32;2.00;99.90
44767;DHT22;30487;48.716;9.272;2023-02-15T07:34:59;2.20;99.90
44767;DHT22;30487;48.716;9.272;2023-02-15T07:37:25;2.30;99.90
44767;DHT22;30487;48.716;9.272;2023-02-15T07:39:50;2.60;99.90
44767;DHT22;30487;48.716;9.272;2023-02-15T07:42:19;2.90;99.90
44767;DHT22;30487;48.716;9.272;2023-02-15T07:44:46;3.20;99.90
44767;DHT22;30487;48.716;9.272;2023-02-15T07:47:12;3.60;99.90
44767;DHT22;30487;48.716;9.272;2023-02-15T07:49:37;4.00;99.90
44767;DHT22;30487;48.716;9.272;2023-02-15T07:52:03;4.30;99.90
44767;DHT22;30487;48.716;9.272;2023-02-15T07:54:29;4.60;99.90
44767;DHT22;30487;48.716;9.272;2023-02-15T07:56:55;4.90;99.90
44767;DHT22;30487;48.716;9.272;2023-02-15T07:59:22;5.30;99.90
44767;DHT22;30487;48.716;9.272;2023-02-15T08:01:47;5.70;99.90
44767;DHT22;30487;48.716;9.272;2023-02-15T08:04:13;5.90;99.90
44767;DHT22;30487;48.716;9.272;2023-02-15T08:06:38;6.30;99.90
44767;DHT22;30487;48.716;9.272;2023-02-15T08:09:06;6.60;99.90
44767;DHT22;30487;48.716;9.272;2023-02-15T08:11:34;7.00;99.90
44767;DHT22;30487;48.716;9.272;2023-02-15T08:14:11;7.30;99.90
44767;DHT22;30487;48.716;9.272;2023-02-15T08:19:22;8.00;99.90
44767;DHT22;30487;48.716;9.272;2023-02-15T08:21:50;8.10;99.90
44767;DHT22;30487;48.716;9.272;2023-02-15T08:24:19;8.30;99.90
44767;DHT22;30487;48.716;9.272;2023-02-15T08:26:45;8.30;99.80
44767;DHT22;30487;48.716;9.272;2023-02-15T08:29:12;8.50;99.30
44767;DHT22;30487;48.716;9.272;2023-02-15T08:31:39;8.70;99.00
44767;DHT22;30487;48.716;9.272;2023-02-15T08:34:07;9.00;98.60
44767;DHT22;30487;48.716;9.272;2023-02-15T08:36:33;9.20;98.30
44767;DHT22;30487;48.716;9.272;2023-02-15T08:39:00;9.40;97.90
44767;DHT22;30487;48.716;9.272;2023-02-15T08:41:29;9.60;97.40
44767;DHT22;30487;48.716;9.272;2023-02-15T08:43:57;9.90;96.40
44767;DHT22;30487;48.716;9.272;2023-02-15T08:46:25;10.20;96.10
44767;DHT22;30487;48.716;9.272;2023-02-15T08:48:51;10.50;95.60
44767;DHT22;30487;48.716;9.272;2023-02-15T08:51:23;10.70;94.50
44767;DHT22;30487;48.716;9.272;2023-02-15T08:53:51;10.80;93.60
44767;DHT22;30487;48.716;9.272;2023-02-15T08:56:20;11.10;93.30
44767;DHT22;30487;48.716;9.272;2023-02-15T08:58:46;11.50;92.70
44767;DHT22;30487;48.716;9.272;2023-02-15T09:01:14;11.60;91.70
44767;DHT22;30487;48.716;9.272;2023-02-15T09:03:44;11.70;90.90
44767;DHT22;30487;48.716;9.272;2023-02-15T09:06:10;11.80;90.90
44767;DHT22;30487;48.716;9.272;2023-02-15T09:08:36;12.00;90.80
44767;DHT22;30487;48.716;9.272;2023-02-15T09:11:17;12.20;89.60
44767;DHT22;30487;48.716;9.272;2023-02-15T09:13:55;12.60;89.30
44767;DHT22;30487;48.716;9.272;2023-02-15T09:16:22;12.90;87.60
44767;DHT22;30487;48.716;9.272;2023-02-15T09:18:48;13.30;87.60
44767;DHT22;30487;48.716;9.272;2023-02-15T09:21:16;13.40;84.80
44767;DHT22;30487;48.716;9.272;2023-02-15T09:23:43;13.60;84.50
44767;DHT22;30487;48.716;9.272;2023-02-15T09:26:12;13.70;82.90
44767;DHT22;30487;48.716;9.272;2023-02-15T09:28:38;13.90;81.90
44767;DHT22;30487;48.716;9.272;2023-02-15T09:31:12;14.10;80.80
44767;DHT22;30487;48.716;9.272;2023-02-15T09:33:39;13.90;79.80
44767;DHT22;30487;48.716;9.272;2023-02-15T09:36:13;14.10;78.70
44767;DHT22;30487;48.716;9.272;2023-02-15T09:38:39;14.20;79.50
44767;DHT22;30487;48.716;9.272;2023-02-15T09:41:44;14.40;77.10
44767;DHT22;30487;48.716;9.272;2023-02-15T09:44:30;14.30;77.00
44767;DHT22;30487;48.716;9.272;2023-02-15T09:55:19;15.60;73.90
44767;DHT22;30487;48.716;9.272;2023-02-15T09:57:58;15.60;73.80
44767;DHT22;30487;48.716;9.272;2023-02-15T10:00:34;16.10;72.20
44767;DHT22;30487;48.716;9.272;2023-02-15T10:08:40;16.30;69.90
44767;DHT22;30487;48.716;9.272;2023-02-15T10:11:20;16.40;68.70
44767;DHT22;30487;48.716;9.272;2023-02-15T10:17:02;16.60;66.50
44767;DHT22;30487;48.716;9.272;2023-02-15T10:22:46;17.00;65.70
44767;DHT22;30487;48.716;9.272;2023-02-15T10:27:48;17.20;65.10
44767;DHT22;30487;48.716;9.272;2023-02-15T10:30:14;17.30;64.70
44767;DHT22;30487;48.716;9.272;2023-02-15T10:33:04;17.40;64.90
44767;DHT22;30487;48.716;9.272;2023-02-15T10:38:16;17.90;67.80
44767;DHT22;30487;48.716;9.272;2023-02-15T10:54:43;18.60;60.70
44767;DHT22;30487;48.716;9.272;2023-02-15T11:03:12;19.30;59.40
44767;DHT22;30487;48.716;9.272;2023-02-15T11:05:46;19.40;57.70
44767;DHT22;30487;48.716;9.272;2023-02-15T11:08:21;19.40;58.20
44767;DHT22;30487;48.716;9.272;2023-02-15T11:10:52;19.80;58.90
44767;DHT22;30487;48.716;9.272;2023-02-15T11:13:21;19.80;57.00
44767;DHT22;30487;48.716;9.272;2023-02-15T11:16:00;20.20;57.50
44767;DHT22;30487;48.716;9.272;2023-02-15T11:21:03;20.60;55.40
44767;DHT22;30487;48.716;9.272;2023-02-15T11:23:30;20.60;55.30
44767;DHT22;30487;48.716;9.272;2023-02-15T11:26:03;20.70;56.00
44767;DHT22;30487;48.716;9.272;2023-02-15T11:28:47;20.50;54.60
44767;DHT22;30487;48.716;9.272;2023-02-15T11:31:20;20.20;55.60
44767;DHT22;30487;48.716;9.272;2023-02-15T11:33:49;20.40;54.70
44767;DHT22;30487;48.716;9.272;2023-02-15T11:36:24;20.70;54.10
44767;DHT22;30487;48.716;9.272;2023-02-15T11:38:56;20.90;53.40
44767;DHT22;30487;48.716;9.272;2023-02-15T11:41:24;21.30;53.20
44767;DHT22;30487;48.716;9.272;2023-02-15T11:43:58;20.90;54.40
44767;DHT22;30487;48.716;9.272;2023-02-15T11:46:25;21.00;55.80
44767;DHT22;30487;48.716;9.272;2023-02-15T11:48:51;21.30;55.20
44767;DHT22;30487;48.716;9.272;2023-02-15T11:51:19;21.60;54.70
44767;DHT22;30487;48.716;9.272;2023-02-15T11:53:46;21.80;53.40
44767;DHT22;30487;48.716;9.272;2023-02-15T11:56:17;22.00;54.30
44767;DHT22;30487;48.716;9.272;2023-02-15T12:01:36;22.40;54.30
44767;DHT22;30487;48.716;9.272;2023-02-15T12:04:13;23.30;53.40
44767;DHT22;30487;48.716;9.272;2023-02-15T12:06:48;23.20;52.90
44767;DHT22;30487;48.716;9.272;2023-02-15T12:09:35;23.10;52.80
44767;DHT22;30487;48.716;9.272;2023-02-15T12:12:27;23.30;53.70
44767;DHT22;30487;48.716;9.272;2023-02-15T12:14:55;23.70;52.00
44767;DHT22;30487;48.716;9.272;2023-02-15T12:17:24;23.90;51.90
44767;DHT22;30487;48.716;9.272;2023-02-15T12:19:52;24.30;52.20
44767;DHT22;30487;48.716;9.272;2023-02-15T12:22:27;24.40;51.20
44767;DHT22;30487;48.716;9.272;2023-02-15T12:24:56;24.50;50.40
44767;DHT22;30487;48.716;9.272;2023-02-15T12:27:33;24.70;50.80
44767;DHT22;30487;48.716;9.272;2023-02-15T12:30:35;24.70;49.60
44767;DHT22;30487;48.716;9.272;2023-02-15T12:32:57;24.80;49.90
44767;DHT22;30487;48.716;9.272;2023-02-15T12:40:38;24.90;48.60
44767;DHT22;30487;48.716;9.272;2023-02-15T12:43:25;24.90;47.60
44767;DHT22;30487;48.716;9.272;2023-02-15T12:45:51;24.90;48.10
44767;DHT22;30487;48.716;9.272;2023-02-15T12:48:18;25.00;47.50
44767;DHT22;30487;48.716;9.272;2023-02-15T12:50:46;25.10;47.10
44767;DHT22;30487;48.716;9.272;2023-02-15T12:53:20;25.30;47.00
44767;DHT22;30487;48.716;9.272;2023-02-15T12:56:06;25.50;46.40
44767;DHT22;30487;48.716;9.272;2023-02-15T12:59:04;25.70;46.20
44767;DHT22;30487;48.716;9.272;2023-02-15T13:01:32;25.80;45.60
44767;DHT22;30487;48.716;9.272;2023-02-15T13:04:01;25.90;45.90
44767;DHT22;30487;48.716;9.272;2023-02-15T13:06:31;26.20;45.90
44767;DHT22;30487;48.716;9.272;2023-02-15T13:09:19;26.20;45.30
44767;DHT22;30487;48.716;9.272;2023-02-15T13:11:46;25.90;45.10
44767;DHT22;30487;48.716;9.272;2023-02-15T13:14:20;26.00;45.30
44767;DHT22;30487;48.716;9.272;2023-02-15T13:16:50;26.00;45.10
44767;DHT22;30487;48.716;9.272;2023-02-15T13:19:33;26.00;45.30
44767;DHT22;30487;48.716;9.272;2023-02-15T13:22:06;26.30;45.10
44767;DHT22;30487;48.716;9.272;2023-02-15T13:27:18;26.20;44.70
44767;DHT22;30487;48.716;9.272;2023-02-15T13:29:48;26.30;44.60
44767;DHT22;30487;48.716;9.272;2023-02-15T13:32:36;26.40;45.30
44767;DHT22;30487;48.716;9.272;2023-02-15T13:35:03;26.30;44.40
44767;DHT22;30487;48.716;9.272;2023-02-15T13:37:55;26.10;44.50
44767;DHT22;30487;48.716;9.272;2023-02-15T13:56:51;25.70;44.20
44767;DHT22;30487;48.716;9.272;2023-02-15T13:59:38;25.70;44.30
44767;DHT22;30487;48.716;9.272;2023-02-15T14:05:05;25.50;45.00
44767;DHT22;30487;48.716;9.272;2023-02-15T14:13:42;25.70;44.60
44767;DHT22;30487;48.716;9.272;2023-02-15T14:15:59;25.80;44.80
44767;DHT22;30487;48.716;9.272;2023-02-15T14:18:40;25.30;44.70
44767;DHT22;30487;48.716;9.272;2023-02-15T14:21:21;25.20;44.80
44767;DHT22;30487;48.716;9.272;2023-02-15T14:29:57;24.90;45.10
44767;DHT22;30487;48.716;9.272;2023-02-15T14:32:35;25.00;45.00
44767;DHT22;30487;48.716;9.272;2023-02-15T14:35:13;24.60;45.40
44767;DHT22;30487;48.716;9.272;2023-02-15T14:40:34;24.60;45.10
44767;DHT22;30487;48.716;9.272;2023-02-15T14:46:55;24.20;45.80
44767;DHT22;30487;48.716;9.272;2023-02-15T14:49:26;24.90;45.90
44767;DHT22;30487;48.716;9.272;2023-02-15T14:51:58;25.10;45.50
44767;DHT22;30487;48.716;9.272;2023-02-15T14:59:50;24.60;45.80
44767;DHT22;30487;48.716;9.272;2023-02-15T15:05:02;24.00;46.30
44767;DHT22;30487;48.716;9.272;2023-02-15T15:12:43;22.70;47.30
44767;DHT22;30487;48.716;9.272;2023-02-15T15:18:01;21.90;48.50
44767;DHT22;30487;48.716;9.272;2023-02-15T15:25:49;21.70;49.10
44767;DHT22;30487;48.716;9.272;2023-02-15T15:36:15;20.60;50.30
44767;DHT22;30487;48.716;9.272;2023-02-15T15:49:47;18.70;53.10
44767;DHT22;30487;48.716;9.272;2023-02-15T15:52:18;18.60;53.30
44767;DHT22;30487;48.716;9.272;2023-02-15T15:54:45;18.40;53.50
44767;DHT22;30487;48.716;9.272;2023-02-15T15:57:25;18.20;53.80
44767;DHT22;30487;48.716;9.272;2023-02-15T15:59:53;18.10;54.60
44767;DHT22;30487;48.716;9.272;2023-02-15T16:02:19;17.70;54.00
44767;DHT22;30487;48.716;9.272;2023-02-15T16:04:46;17.50;54.20
44767;DHT22;30487;48.716;9.272;2023-02-15T16:09:56;17.10;54.50
44767;DHT22;30487;48.716;9.272;2023-02-15T16:12:22;16.90;54.70
44767;DHT22;30487;48.716;9.272;2023-02-15T16:14:48;16.70;55.40
44767;DHT22;30487;48.716;9.272;2023-02-15T16:17:23;16.60;55.90
44767;DHT22;30487;48.716;9.272;2023-02-15T16:19:50;16.40;56.10
44767;DHT22;30487;48.716;9.272;2023-02-15T16:22:24;16.40;56.40
44767;DHT22;30487;48.716;9.272;2023-02-15T16:27:41;15.90;57.50
44767;DHT22;30487;48.716;9.272;2023-02-15T16:32:46;15.30;58.90
44767;DHT22;30487;48.716;9.272;2023-02-15T16:35:16;14.90;59.30
44767;DHT22;30487;48.716;9.272;2023-02-15T16:37:43;14.70;60.10
44767;DHT22;30487;48.716;9.272;2023-02-15T16:43:02;14.10;61.20
44767;DHT22;30487;48.716;9.272;2023-02-15T16:45:31;13.90;62.10
44767;DHT22;30487;48.716;9.272;2023-02-15T16:47:59;13.80;62.60
44767;DHT22;30487;48.716;9.272;2023-02-15T16:50:31;13.70;62.40
44767;DHT22;30487;48.716;9.272;2023-02-15T16:52:57;13.60;62.50
44767;DHT22;30487;48.716;9.272;2023-02-15T16:55:31;13.50;62.50
44767;DHT22;30487;48.716;9.272;2023-02-15T16:58:02;13.30;62.60
44767;DHT22;30487;48.716;9.272;2023-02-15T17:00:34;13.30;62.60
44767;DHT22;30487;48.716;9.272;2023-02-15T17:03:19;13.20;62.70
44767;DHT22;30487;48.716;9.272;2023-02-15T17:05:51;13.10;63.00
44767;DHT22;30487;48.716;9.272;2023-02-15T17:13:31;12.80;64.10
44767;DHT22;30487;48.716;9.272;2023-02-15T17:18:31;12.60;64.10
44767;DHT22;30487;48.716;9.272;2023-02-15T17:21:08;12.50;64.20
44767;DHT22;30487;48.716;9.272;2023-02-15T17:23:44;12.40;64.40
44767;DHT22;30487;48.716;9.272;2023-02-15T17:26:13;12.30;64.80
44767;DHT22;30487;48.716;9.272;2023-02-15T17:28:51;12.10;64.90
44767;DHT22;30487;48.716;9.272;2023-02-15T17:31:19;12.10;64.90
44767;DHT22;30487;48.716;9.272;2023-02-15T17:33:46;12.00;65.10
44767;DHT22;30487;48.716;9.272;2023-02-15T17:36:18;12.00;65.10
44767;DHT22;30487;48.716;9.272;2023-02-15T17:39:20;11.90;65.20
44767;DHT22;30487;48.716;9.272;2023-02-15T17:41:47;11.90;65.50
44767;DHT22;30487;48.716;9.272;2023-02-15T17:44:13;11.80;65.80
44767;DHT22;30487;48.716;9.272;2023-02-15T17:46:41;11.70;66.20
44767;DHT22;30487;48.716;9.272;2023-02-15T17:49:17;11.60;66.50
44767;DHT22;30487;48.716;9.272;2023-02-15T17:51:43;11.60;66.90
44767;DHT22;30487;48.716;9.272;2023-02-15T17:54:09;11.40;67.10
44767;DHT22;30487;48.716;9.272;2023-02-15T17:56:53;11.30;67.20
44767;DHT22;30487;48.716;9.272;2023-02-15T17:59:19;11.30;67.60
44767;DHT22;30487;48.716;9.272;2023-02-15T18:01:48;11.30;68.00
44767;DHT22;30487;48.716;9.272;2023-02-15T18:04:34;11.20;68.20
44767;DHT22;30487;48.716;9.272;2023-02-15T18:07:19;11.00;68.00
44767;DHT22;30487;48.716;9.272;2023-02-15T18:10:15;10.80;68.70
44767;DHT22;30487;48.716;9.272;2023-02-15T18:13:00;10.60;69.40
44767;DHT22;30487;48.716;9.272;2023-02-15T18:15:26;10.50;70.00
44767;DHT22;30487;48.716;9.272;2023-02-15T18:17:51;10.40;70.00
44767;DHT22;30487;48.716;9.272;2023-02-15T18:20:20;10.40;70.30
44767;DHT22;30487;48.716;9.272;2023-02-15T18:22:48;10.50;70.70
44767;DHT22;30487;48.716;9.272;2023-02-15T18:25:18;10.50;70.50
44767;DHT22;30487;48.716;9.272;2023-02-15T18:27:44;10.40;71.10
44767;DHT22;30487;48.716;9.272;2023-02-15T18:30:15;10.40;70.40
44767;DHT22;30487;48.716;9.272;2023-02-15T18:32:41;10.30;70.60
44767;DHT22;30487;48.716;9.272;2023-02-15T18:35:16;10.30;70.80
44767;DHT22;30487;48.716;9.272;2023-02-15T18:37:43;10.10;71.60
44767;DHT22;30487;48.716;9.272;2023-02-15T18:40:18;10.10;71.00
44767;DHT22;30487;48.716;9.272;2023-02-15T18:42:44;10.10;71.10
44767;DHT22;30487;48.716;9.272;2023-02-15T18:45:20;10.10;71.30
44767;DHT22;30487;48.716;9.272;2023-02-15T18:47:47;10.00;71.40
44767;DHT22;30487;48.716;9.272;2023-02-15T18:50:18;10.00;71.50
44767;DHT22;30487;48.716;9.272;2023-02-15T18:52:45;9.90;71.30
44767;DHT22;30487;48.716;9.272;2023-02-15T18:55:21;9.70;71.50
44767;DHT22;30487;48.716;9.272;2023-02-15T18:57:48;9.50;72.40
44767;DHT22;30487;48.716;9.272;2023-02-15T19:00:23;9.20;72.20
44767;DHT22;30487;48.716;9.272;2023-02-15T19:02:53;9.00;72.30